Time;durP1;ratioP1;P1;durP2;ratioP2;P2;SDS_P1;SDS_P2;PMS_P1;PMS_P2;Temp;Humidity;BMP_temperature;BMP_pressure;BME280_temperature;BME280_humidity;BME280_pressure;Samples;Min_cycle;Max_cycle;Signal;HPM_P1;HPM_P2
2021/12/10 00:01:41;;;;;;;22.20;12.18;;;6.80;99.90;;;;;;5057542;28;20526;-88
2021/12/10 00:04:09;;;;;;;23.33;13.82;;;6.80;99.90;;;;;;5040023;28;20052;-88
2021/12/10 00:06:49;;;;;;;20.48;12.20;;;6.80;99.90;;;;;;5039334;28;20033;-88
2021/12/10 00:09:25;;;;;;;26.73;16.33;;;6.80;99.90;;;;;;5039777;28;20044;-88
2021/12/10 00:12:03;;;;;;;23.67;14.70;;;6.80;99.90;;;;;;5057272;28;20029;-89
2021/12/10 00:14:37;;;;;;;25.45;15.10;;;6.80;99.90;;;;;;5039424;28;20076;-88
2021/12/10 00:17:06;;;;;;;22.27;13.77;;;6.80;99.90;;;;;;5039250;28;20095;-87
2021/12/10 00:19:42;;;;;;;23.35;13.77;;;6.80;99.90;;;;;;5020195;28;20124;-87
2021/12/10 00:22:34;;;;;;;26.00;15.85;;;6.80;99.90;;;;;;4995996;28;20034;-88
2021/12/10 00:25:21;;;;;;;28.65;16.58;;;6.80;99.90;;;;;;4996200;28;20346;-88
2021/12/10 00:27:49;;;;;;;30.70;18.15;;;6.80;99.90;;;;;;4979303;28;20092;-87
2021/12/10 00:30:23;;;;;;;34.58;20.40;;;6.90;99.90;;;;;;4995884;28;20465;-85
2021/12/10 00:33:00;;;;;;;41.03;24.08;;;6.90;99.90;;;;;;4979246;28;20034;-86
2021/12/10 00:35:28;;;;;;;44.88;24.73;;;6.90;99.90;;;;;;4995598;28;20046;-86
2021/12/10 00:37:54;;;;;;;42.83;25.23;;;6.90;99.90;;;;;;4979264;28;20489;-87
2021/12/10 00:40:22;;;;;;;42.55;25.40;;;6.90;99.90;;;;;;4979518;28;20073;-87
2021/12/10 00:42:48;;;;;;;48.15;25.83;;;6.90;99.90;;;;;;4979200;28;20480;-87
2021/12/10 00:45:16;;;;;;;41.30;25.77;;;6.90;99.90;;;;;;4995430;28;20034;-87
2021/12/10 00:47:42;;;;;;;42.22;24.40;;;7.00;99.90;;;;;;4963913;28;20053;-88
2021/12/10 00:50:17;;;;;;;38.53;22.05;;;7.00;99.90;;;;;;5001797;28;20476;-87
2021/12/10 00:52:45;;;;;;;30.33;18.25;;;7.00;99.90;;;;;;4998074;28;20044;-87
2021/12/10 00:55:12;;;;;;;25.75;16.00;;;7.00;99.90;;;;;;5022282;28;20128;-88
2021/12/10 00:57:38;;;;;;;24.58;14.23;;;7.00;99.90;;;;;;5037636;28;20488;-87
2021/12/10 01:00:09;;;;;;;23.70;13.75;;;7.00;99.90;;;;;;5017840;28;20133;-88
2021/12/10 01:02:35;;;;;;;23.50;14.25;;;7.00;99.90;;;;;;5019742;28;20033;-87
2021/12/10 01:05:01;;;;;;;28.02;15.43;;;7.00;99.90;;;;;;5023729;28;20037;-87
2021/12/10 01:07:31;;;;;;;26.45;14.80;;;6.90;99.90;;;;;;5037813;28;20495;-87
2021/12/10 01:10:00;;;;;;;28.60;15.52;;;6.90;99.90;;;;;;5019198;28;20033;-88
2021/12/10 01:12:31;;;;;;;22.42;13.27;;;6.90;99.90;;;;;;5019755;28;20045;-88
2021/12/10 01:24:35;;;;;;;27.67;14.18;;;6.90;99.90;;;;;;5036594;28;20093;-87
2021/12/10 01:27:26;;;;;;;27.10;14.48;;;6.90;99.90;;;;;;5005120;28;20041;-88
2021/12/10 01:29:56;;;;;;;29.33;15.63;;;6.90;99.90;;;;;;5018572;28;20555;-87
2021/12/10 01:32:28;;;;;;;26.53;14.67;;;6.90;99.90;;;;;;5018556;28;20124;-87
2021/12/10 01:34:54;;;;;;;32.55;16.67;;;6.90;99.90;;;;;;5018561;28;20041;-87
2021/12/10 01:37:20;;;;;;;34.85;16.58;;;6.90;99.90;;;;;;5019692;28;20041;-87
2021/12/10 01:39:46;;;;;;;31.48;15.75;;;6.90;99.90;;;;;;5020133;28;20046;-87
2021/12/10 01:44:53;;;;;;;40.63;19.25;;;6.90;99.90;;;;;;5051925;28;20041;-86
2021/12/10 01:47:24;;;;;;;52.97;25.55;;;6.90;99.90;;;;;;5027617;28;20048;-88
2021/12/10 01:49:51;;;;;;;67.45;32.78;;;6.90;99.90;;;;;;5024157;28;20049;-87
2021/12/10 01:52:19;;;;;;;72.05;33.05;;;6.90;99.90;;;;;;5024288;28;20037;-86
2021/12/10 01:54:53;;;;;;;62.15;31.77;;;6.90;99.90;;;;;;5038848;28;20381;-86
2021/12/10 01:57:23;;;;;;;53.05;28.08;;;6.90;99.90;;;;;;5036986;28;20040;-86
2021/12/10 01:59:49;;;;;;;51.73;27.40;;;6.90;99.90;;;;;;5017960;28;20057;-86
2021/12/10 02:02:22;;;;;;;53.65;28.38;;;6.90;99.90;;;;;;5018183;28;20468;-87
2021/12/10 02:04:48;;;;;;;47.85;26.85;;;6.90;99.90;;;;;;5018092;28;20383;-86
2021/12/10 02:07:20;;;;;;;57.42;32.42;;;6.90;99.90;;;;;;5018492;28;20380;-87
2021/12/10 02:09:46;;;;;;;48.47;28.67;;;6.90;99.90;;;;;;5018090;28;20041;-86
2021/12/10 02:12:12;;;;;;;50.78;28.50;;;6.90;99.90;;;;;;5034395;28;20060;-88
2021/12/10 02:14:40;;;;;;;47.38;27.42;;;6.90;99.90;;;;;;5017667;28;20029;-90
2021/12/10 02:17:06;;;;;;;45.13;24.85;;;6.90;99.90;;;;;;5016995;28;20053;-88
2021/12/10 02:19:32;;;;;;;44.67;24.35;;;6.90;99.90;;;;;;5034205;28;20037;-89
2021/12/10 02:21:58;;;;;;;37.17;21.33;;;6.90;99.90;;;;;;5017083;28;20033;-88
2021/12/10 02:24:24;;;;;;;42.47;23.23;;;6.90;99.90;;;;;;5018175;28;20441;-89
2021/12/10 02:26:55;;;;;;;44.08;22.45;;;6.90;99.90;;;;;;5033604;28;20030;-89
2021/12/10 02:29:40;;;;;;;52.00;22.90;;;6.90;99.90;;;;;;5017641;28;20045;-88
2021/12/10 02:32:09;;;;;;;48.28;23.35;;;6.90;99.90;;;;;;5017685;28;20033;-88
2021/12/10 02:34:35;;;;;;;52.60;27.17;;;6.80;99.90;;;;;;5017133;28;20151;-86
2021/12/10 02:37:02;;;;;;;53.22;26.08;;;6.80;99.90;;;;;;5035164;28;20064;-86
2021/12/10 02:39:28;;;;;;;43.80;22.85;;;6.80;99.90;;;;;;5034563;28;20487;-86
2021/12/10 02:41:54;;;;;;;41.05;20.42;;;6.80;99.90;;;;;;5033747;28;20040;-87
2021/12/10 02:44:24;;;;;;;28.63;14.63;;;6.80;99.90;;;;;;5016792;28;20087;-88
2021/12/10 02:46:51;;;;;;;25.30;12.98;;;6.80;99.90;;;;;;5019525;28;20480;-87
2021/12/10 02:49:17;;;;;;;25.73;12.43;;;6.80;99.90;;;;;;5028017;28;20036;-88
2021/12/10 02:51:44;;;;;;;20.83;11.25;;;6.70;99.90;;;;;;5026493;28;20042;-86
2021/12/10 02:54:14;;;;;;;21.73;10.82;;;6.70;99.90;;;;;;5037274;28;20436;-87
2021/12/10 02:56:41;;;;;;;18.27;9.60;;;6.70;99.90;;;;;;5036846;28;20041;-87
2021/12/10 02:59:07;;;;;;;21.55;11.02;;;6.80;99.90;;;;;;5017139;28;20095;-87
2021/12/10 03:01:40;;;;;;;20.40;11.05;;;6.70;99.90;;;;;;5033355;28;20037;-87
2021/12/10 03:04:08;;;;;;;19.25;10.43;;;6.80;99.90;;;;;;5034501;28;20033;-87
2021/12/10 03:06:35;;;;;;;20.10;11.60;;;6.80;99.90;;;;;;5016149;28;20034;-87
2021/12/10 03:09:01;;;;;;;26.98;14.15;;;6.80;99.90;;;;;;5016339;28;20065;-87
2021/12/10 03:11:32;;;;;;;26.98;14.25;;;6.80;99.90;;;;;;5015829;28;20060;-86
2021/12/10 03:13:59;;;;;;;27.00;14.07;;;6.80;99.90;;;;;;5016793;28;20549;-85
2021/12/10 03:16:25;;;;;;;24.58;13.35;;;6.80;99.90;;;;;;5034185;28;20396;-85
2021/12/10 03:18:51;;;;;;;20.77;11.73;;;6.80;99.90;;;;;;5016309;28;20036;-85
2021/12/10 03:21:17;;;;;;;17.02;10.00;;;6.70;99.90;;;;;;5034164;28;20030;-86
2021/12/10 03:23:47;;;;;;;22.63;12.95;;;6.70;99.90;;;;;;5032835;28;20029;-85
2021/12/10 03:26:20;;;;;;;17.33;10.35;;;6.70;99.90;;;;;;5016629;28;20037;-85
2021/12/10 03:28:49;;;;;;;16.23;9.85;;;6.70;99.90;;;;;;5016526;28;20037;-84
2021/12/10 03:31:15;;;;;;;17.50;10.00;;;6.70;99.90;;;;;;5033911;28;20026;-84
2021/12/10 03:33:42;;;;;;;16.08;8.93;;;6.70;99.90;;;;;;5015842;28;20040;-84
2021/12/10 03:36:09;;;;;;;18.10;10.40;;;6.70;99.90;;;;;;5033817;28;20490;-85
2021/12/10 03:38:36;;;;;;;15.48;9.13;;;6.70;99.90;;;;;;5015972;28;20072;-86
2021/12/10 03:41:03;;;;;;;19.25;11.30;;;6.60;99.90;;;;;;5016892;28;20044;-85
2021/12/10 03:43:30;;;;;;;18.15;11.30;;;6.60;99.90;;;;;;5016271;28;20099;-85
2021/12/10 03:45:58;;;;;;;21.77;13.52;;;6.60;99.90;;;;;;5016454;28;20041;-85
2021/12/10 03:48:34;;;;;;;20.52;12.38;;;6.60;99.90;;;;;;5016382;28;20041;-85
2021/12/10 03:51:06;;;;;;;21.08;12.13;;;6.50;99.90;;;;;;5035655;28;20459;-84
2021/12/10 03:53:31;;;;;;;19.77;11.55;;;6.50;99.90;;;;;;5035814;28;20033;-83
2021/12/10 03:56:07;;;;;;;17.25;9.90;;;6.40;99.90;;;;;;5031777;28;20119;-86
2021/12/10 03:58:34;;;;;;;14.50;8.82;;;6.40;99.90;;;;;;5016097;28;20476;-86
2021/12/10 04:01:02;;;;;;;14.80;8.40;;;6.30;99.90;;;;;;5032755;28;20044;-85
2021/12/10 04:03:30;;;;;;;14.57;8.52;;;6.30;99.90;;;;;;5033821;28;20044;-85
2021/12/10 04:05:57;;;;;;;15.73;9.70;;;6.20;99.90;;;;;;5033151;28;20049;-85
2021/12/10 04:08:23;;;;;;;22.67;13.60;;;6.20;99.90;;;;;;5032403;28;20081;-87
2021/12/10 04:10:51;;;;;;;22.60;13.52;;;6.20;99.90;;;;;;5016049;28;20148;-86
2021/12/10 04:13:17;;;;;;;27.13;15.65;;;6.20;99.90;;;;;;5016083;28;20124;-87
2021/12/10 04:15:44;;;;;;;29.17;16.17;;;6.20;99.90;;;;;;5015754;28;20042;-87
2021/12/10 04:18:11;;;;;;;29.70;16.33;;;6.20;99.90;;;;;;5015805;28;20042;-87
2021/12/10 04:20:38;;;;;;;36.33;17.98;;;6.10;99.90;;;;;;5032296;28;20045;-88
2021/12/10 04:23:09;;;;;;;40.13;20.00;;;6.10;99.90;;;;;;5015849;28;20038;-88
2021/12/10 04:25:36;;;;;;;38.17;18.98;;;6.10;99.90;;;;;;5015526;28;20092;-88
2021/12/10 04:28:07;;;;;;;39.42;20.20;;;6.00;99.90;;;;;;5015900;28;20042;-87
2021/12/10 04:30:39;;;;;;;33.83;18.42;;;6.00;99.90;;;;;;5033157;28;20452;-88
2021/12/10 04:33:05;;;;;;;32.90;17.60;;;5.90;99.90;;;;;;5016026;28;20452;-87
2021/12/10 04:35:32;;;;;;;29.40;15.60;;;5.90;99.90;;;;;;5017057;28;20052;-84
2021/12/10 04:37:58;;;;;;;28.40;15.07;;;5.90;99.90;;;;;;5019098;28;20044;-86
2021/12/10 04:40:26;;;;;;;26.73;14.18;;;5.80;99.90;;;;;;5037315;28;20105;-88
2021/12/10 04:42:53;;;;;;;32.70;16.02;;;5.80;99.90;;;;;;5019289;28;20087;-88
2021/12/10 04:45:19;;;;;;;30.92;15.27;;;5.70;99.90;;;;;;5041614;28;20037;-86
2021/12/10 04:47:47;;;;;;;32.10;15.00;;;5.70;99.90;;;;;;5036830;28;20083;-87
2021/12/10 04:50:17;;;;;;;34.83;16.05;;;5.60;99.90;;;;;;5019145;28;20162;-86
2021/12/10 04:52:42;;;;;;;38.58;17.45;;;5.60;99.90;;;;;;5021288;28;20049;-87
2021/12/10 04:55:11;;;;;;;41.22;18.33;;;5.70;99.90;;;;;;5039711;28;20538;-87
2021/12/10 04:57:37;;;;;;;42.78;21.50;;;5.70;99.90;;;;;;5023227;28;20041;-85
2021/12/10 05:00:06;;;;;;;45.00;22.67;;;5.70;99.90;;;;;;5019656;28;20491;-84
2021/12/10 05:02:34;;;;;;;43.83;23.40;;;5.70;99.90;;;;;;5019429;28;20410;-84
2021/12/10 05:05:00;;;;;;;46.63;27.33;;;5.70;99.90;;;;;;5018635;28;20037;-86
2021/12/10 05:07:30;;;;;;;46.50;26.02;;;5.80;99.90;;;;;;5035321;28;20123;-85
2021/12/10 05:09:56;;;;;;;42.53;23.38;;;5.80;99.90;;;;;;5035250;28;20526;-85
2021/12/10 05:12:22;;;;;;;42.83;22.80;;;5.80;99.90;;;;;;5018262;28;20121;-83
2021/12/10 05:14:48;;;;;;;36.65;20.10;;;5.80;99.90;;;;;;5034280;28;20444;-82
2021/12/10 05:17:15;;;;;;;36.03;20.23;;;5.80;99.90;;;;;;5035260;28;20107;-81
2021/12/10 05:19:42;;;;;;;32.10;17.38;;;5.90;99.90;;;;;;5036036;28;20479;-82
2021/12/10 05:22:11;;;;;;;31.20;17.40;;;5.80;99.90;;;;;;5034775;28;20029;-82
2021/12/10 05:24:37;;;;;;;31.38;17.02;;;5.80;99.90;;;;;;5018259;28;20029;-84
2021/12/10 05:27:04;;;;;;;28.00;15.85;;;5.80;99.90;;;;;;5018169;28;20037;-88
2021/12/10 05:29:30;;;;;;;25.40;13.63;;;5.80;99.90;;;;;;5036529;28;20120;-88
2021/12/10 05:32:08;;;;;;;26.98;14.02;;;5.80;99.90;;;;;;5034817;28;20053;-89
2021/12/10 05:34:39;;;;;;;28.73;14.48;;;5.80;99.90;;;;;;5036835;28;20033;-86
2021/12/10 05:37:06;;;;;;;26.58;13.73;;;5.70;99.90;;;;;;5034664;28;20038;-86
2021/12/10 05:39:34;;;;;;;25.48;13.23;;;5.70;99.90;;;;;;5017220;28;20483;-86
2021/12/10 05:42:03;;;;;;;24.45;13.18;;;5.70;99.90;;;;;;5018034;28;20491;-91
2021/12/10 05:44:29;;;;;;;29.63;14.73;;;5.70;99.90;;;;;;5039153;28;20030;-87
2021/12/10 05:46:55;;;;;;;23.85;12.82;;;5.70;99.90;;;;;;5035102;28;20415;-87
2021/12/10 05:49:20;;;;;;;32.38;14.15;;;5.70;99.90;;;;;;5038026;28;20399;-90
2021/12/10 05:51:46;;;;;;;31.13;14.68;;;5.70;99.90;;;;;;5037733;28;20044;-86
2021/12/10 05:54:12;;;;;;;31.02;16.08;;;5.70;99.90;;;;;;5042086;28;20025;-87
2021/12/10 05:56:38;;;;;;;28.20;14.88;;;5.70;99.90;;;;;;5048291;28;20075;-88
2021/12/10 05:59:05;;;;;;;29.25;15.10;;;5.70;99.90;;;;;;5038695;28;20049;-88
2021/12/10 06:01:31;;;;;;;26.60;13.55;;;5.70;99.90;;;;;;5033672;28;20068;-87
2021/12/10 06:03:57;;;;;;;26.13;14.25;;;5.60;99.90;;;;;;5016997;28;20037;-88
2021/12/10 06:06:28;;;;;;;27.20;14.75;;;5.60;99.90;;;;;;5033858;28;20587;-87
2021/12/10 06:08:56;;;;;;;32.88;16.50;;;5.60;99.90;;;;;;5018825;28;20030;-89
2021/12/10 06:11:24;;;;;;;36.92;18.42;;;5.60;99.90;;;;;;5017578;28;20171;-89
2021/12/10 06:13:50;;;;;;;41.63;19.50;;;5.50;99.90;;;;;;5035499;28;20044;-88
2021/12/10 06:16:20;;;;;;;42.47;19.65;;;5.50;99.90;;;;;;5017189;28;20139;-86
2021/12/10 06:18:47;;;;;;;46.90;20.42;;;5.50;99.90;;;;;;5017223;28;20167;-87
2021/12/10 06:21:13;;;;;;;49.58;23.23;;;5.50;99.90;;;;;;5033921;28;20033;-85
2021/12/10 06:23:39;;;;;;;52.95;25.23;;;5.50;99.90;;;;;;5037147;28;20040;-86
2021/12/10 06:26:05;;;;;;;46.55;23.50;;;5.50;99.90;;;;;;5037178;28;20037;-89
2021/12/10 06:28:32;;;;;;;38.30;19.80;;;5.50;99.90;;;;;;5055182;28;20452;-90
2021/12/10 06:30:59;;;;;;;33.58;17.75;;;5.40;99.90;;;;;;5055096;28;20541;-81
2021/12/10 06:33:27;;;;;;;44.83;21.95;;;5.50;99.90;;;;;;5037805;28;20040;-87
2021/12/10 06:35:55;;;;;;;37.50;17.73;;;5.50;99.90;;;;;;5055371;28;20460;-84
2021/12/10 06:38:23;;;;;;;33.92;17.88;;;5.60;99.90;;;;;;5036721;28;20033;-84
2021/12/10 06:40:50;;;;;;;36.97;18.80;;;5.60;99.90;;;;;;5036982;28;20041;-84
2021/12/10 06:43:16;;;;;;;28.65;14.85;;;5.60;99.90;;;;;;5036732;28;20033;-83
2021/12/10 06:45:44;;;;;;;32.78;16.50;;;5.70;99.90;;;;;;5054812;28;20037;-86
2021/12/10 06:48:11;;;;;;;37.33;17.80;;;5.70;99.90;;;;;;5036879;28;20191;-84
2021/12/10 06:50:41;;;;;;;36.50;18.17;;;5.70;99.90;;;;;;5055483;28;20032;-85
2021/12/10 06:53:07;;;;;;;37.67;19.05;;;5.70;99.90;;;;;;5038210;28;20379;-85
2021/12/10 06:55:34;;;;;;;39.83;18.85;;;5.70;99.90;;;;;;5037986;28;20037;-83
2021/12/10 06:58:01;;;;;;;40.65;19.20;;;5.70;99.90;;;;;;5054267;28;20541;-84
2021/12/10 07:00:45;;;;;;;42.15;19.80;;;5.70;99.90;;;;;;5032589;28;20045;-85
2021/12/10 07:03:16;;;;;;;36.67;17.98;;;5.70;99.90;;;;;;5024620;28;20121;-87
2021/12/10 07:05:42;;;;;;;31.45;16.38;;;5.80;99.90;;;;;;5053845;28;20040;-91
2021/12/10 07:08:08;;;;;;;41.13;21.95;;;5.80;99.90;;;;;;5060115;28;20520;-89
2021/12/10 07:10:35;;;;;;;35.22;19.83;;;5.80;99.90;;;;;;5057068;28;20124;-82
2021/12/10 07:13:03;;;;;;;32.65;18.70;;;6.00;99.90;;;;;;5053766;28;20068;-81
2021/12/10 07:15:30;;;;;;;33.90;17.63;;;6.00;99.90;;;;;;5054094;28;20382;-82
2021/12/10 07:17:55;;;;;;;33.25;17.45;;;6.10;99.90;;;;;;5052756;28;20109;-81
2021/12/10 07:20:23;;;;;;;37.40;20.40;;;6.10;99.90;;;;;;5049993;28;20049;-80
2021/12/10 07:22:50;;;;;;;43.03;20.67;;;6.20;99.90;;;;;;5053117;28;20036;-81
2021/12/10 07:25:16;;;;;;;44.88;21.17;;;6.20;99.90;;;;;;5052450;28;20091;-81
2021/12/10 07:27:43;;;;;;;61.45;26.08;;;6.30;99.90;;;;;;5052473;28;20029;-80
2021/12/10 07:30:10;;;;;;;54.75;24.05;;;6.30;99.90;;;;;;5052248;28;20079;-81
2021/12/10 07:32:36;;;;;;;51.88;23.13;;;6.30;99.90;;;;;;5050788;28;20100;-81
2021/12/10 07:35:05;;;;;;;41.70;21.00;;;6.30;99.90;;;;;;5050417;28;20049;-83
2021/12/10 07:37:31;;;;;;;38.10;21.38;;;6.40;99.90;;;;;;5032288;28;20040;-85
2021/12/10 07:39:57;;;;;;;34.50;19.35;;;6.40;99.90;;;;;;5050767;28;20037;-83
2021/12/10 07:42:22;;;;;;;32.33;17.55;;;6.50;99.90;;;;;;5033981;28;20033;-85
2021/12/10 07:44:49;;;;;;;28.67;17.02;;;6.50;99.90;;;;;;5034573;28;20033;-83
2021/12/10 07:47:15;;;;;;;31.10;16.85;;;6.50;99.90;;;;;;5053086;28;20032;-80
2021/12/10 07:49:43;;;;;;;73.32;46.20;;;6.60;99.90;;;;;;5037549;28;20029;-86
2021/12/10 07:52:17;;;;;;;53.78;30.67;;;6.60;99.90;;;;;;5054461;28;20029;-83
2021/12/10 07:54:46;;;;;;;37.28;22.92;;;6.60;99.90;;;;;;5053846;28;20033;-84
2021/12/10 07:57:14;;;;;;;33.47;19.83;;;6.70;99.90;;;;;;5053440;28;20116;-78
2021/12/10 07:59:39;;;;;;;32.10;18.10;;;6.70;99.90;;;;;;5035686;28;20056;-83
2021/12/10 08:02:06;;;;;;;32.08;18.60;;;6.70;99.90;;;;;;5035738;28;20436;-79
2021/12/10 08:04:31;;;;;;;32.53;18.35;;;6.70;99.90;;;;;;5053138;28;20099;-81
2021/12/10 08:06:57;;;;;;;29.60;17.33;;;6.70;99.90;;;;;;5053825;28;20041;-80
2021/12/10 08:09:23;;;;;;;28.55;17.00;;;6.70;99.90;;;;;;5054923;28;20462;-80
2021/12/10 08:11:49;;;;;;;28.85;16.80;;;6.70;99.90;;;;;;5057218;28;20048;-80
2021/12/10 08:14:15;;;;;;;26.02;15.48;;;6.70;99.90;;;;;;5039518;28;20124;-80
2021/12/10 08:16:40;;;;;;;31.35;16.65;;;6.80;99.90;;;;;;5039574;28;20037;-80
2021/12/10 08:19:08;;;;;;;34.42;18.00;;;6.80;99.90;;;;;;5057612;28;20068;-81
2021/12/10 08:21:33;;;;;;;31.92;17.73;;;6.90;99.90;;;;;;5040677;28;20044;-83
2021/12/10 08:23:59;;;;;;;33.25;18.15;;;6.90;99.90;;;;;;5039163;28;20041;-82
2021/12/10 08:26:25;;;;;;;67.70;38.92;;;6.90;99.90;;;;;;5060214;28;20037;-90
2021/12/10 08:28:52;;;;;;;51.25;29.83;;;6.90;99.90;;;;;;5039138;28;20033;-81
2021/12/10 08:31:19;;;;;;;43.40;24.55;;;7.00;99.90;;;;;;5039167;28;20502;-79
2021/12/10 08:33:48;;;;;;;35.78;20.75;;;7.10;99.90;;;;;;5038838;28;20037;-81
2021/12/10 08:36:15;;;;;;;31.55;18.52;;;7.20;99.90;;;;;;5039150;28;20434;-81
2021/12/10 08:38:41;;;;;;;31.85;18.35;;;7.20;99.90;;;;;;5039294;28;20037;-80
2021/12/10 08:41:34;;;;;;;30.10;17.55;;;7.20;99.90;;;;;;5039002;28;20471;-79
2021/12/10 08:44:01;;;;;;;34.75;20.77;;;7.20;99.90;;;;;;5052429;28;20063;-80
2021/12/10 08:46:28;;;;;;;37.80;20.73;;;7.20;99.90;;;;;;5056535;28;20037;-80
2021/12/10 08:48:56;;;;;;;37.55;21.65;;;7.10;99.90;;;;;;5039285;28;20044;-80
2021/12/10 08:51:44;;;;;;;36.50;20.63;;;7.10;99.90;;;;;;5039958;28;20041;-80
2021/12/10 08:54:12;;;;;;;33.45;19.58;;;7.10;99.90;;;;;;5055633;28;20072;-80
2021/12/10 08:56:38;;;;;;;34.08;20.20;;;7.10;99.90;;;;;;5056410;28;20048;-81
2021/12/10 08:59:06;;;;;;;32.13;19.58;;;7.20;99.90;;;;;;5056725;28;20048;-82
2021/12/10 09:01:36;;;;;;;31.00;17.85;;;7.20;99.90;;;;;;5056276;28;20033;-81
2021/12/10 09:04:04;;;;;;;50.47;29.95;;;7.10;99.90;;;;;;5066383;28;20093;-90
2021/12/10 09:06:33;;;;;;;41.28;22.58;;;7.20;99.90;;;;;;5059129;28;20037;-79
2021/12/10 09:09:00;;;;;;;37.92;21.08;;;7.20;99.90;;;;;;5056314;28;20072;-79
2021/12/10 09:11:26;;;;;;;37.05;20.48;;;7.20;99.90;;;;;;5056413;28;20025;-79
2021/12/10 09:13:52;;;;;;;35.65;19.42;;;7.20;99.90;;;;;;5038322;28;20036;-80
2021/12/10 09:16:26;;;;;;;43.70;23.48;;;7.20;99.90;;;;;;5038345;28;20095;-79
2021/12/10 09:18:58;;;;;;;42.45;23.00;;;7.20;99.90;;;;;;5038728;28;20395;-79
2021/12/10 09:21:24;;;;;;;37.28;20.00;;;7.10;99.90;;;;;;5038094;28;20033;-79
2021/12/10 09:23:53;;;;;;;39.22;20.60;;;7.10;99.90;;;;;;5056256;28;20032;-78
2021/12/10 09:26:20;;;;;;;36.47;20.25;;;7.10;99.90;;;;;;5056394;28;20075;-79
2021/12/10 09:28:47;;;;;;;44.28;22.23;;;7.20;99.90;;;;;;5038437;28;20091;-79
2021/12/10 09:31:14;;;;;;;35.63;19.95;;;7.10;99.90;;;;;;5037566;28;20090;-79
2021/12/10 09:33:42;;;;;;;38.80;20.67;;;7.20;99.90;;;;;;5055649;28;20037;-80
2021/12/10 09:36:09;;;;;;;42.28;21.63;;;7.20;99.90;;;;;;5037814;28;20075;-79
2021/12/10 09:38:35;;;;;;;44.72;22.30;;;7.20;99.90;;;;;;5037789;28;20038;-80
2021/12/10 09:41:05;;;;;;;49.72;28.60;;;7.20;99.90;;;;;;5060220;28;20071;-88
2021/12/10 09:43:33;;;;;;;54.75;30.80;;;7.10;99.90;;;;;;5039782;28;20033;-80
2021/12/10 09:45:59;;;;;;;50.45;27.90;;;7.20;99.90;;;;;;5037568;28;20037;-80
2021/12/10 09:48:26;;;;;;;48.50;26.45;;;7.20;99.90;;;;;;5037712;28;20036;-81
2021/12/10 09:50:58;;;;;;;41.13;22.42;;;7.20;99.90;;;;;;5055368;28;20443;-79
2021/12/10 09:53:27;;;;;;;47.97;27.08;;;7.20;99.90;;;;;;5055594;28;20033;-80
2021/12/10 09:55:53;;;;;;;39.33;21.77;;;7.30;99.90;;;;;;5038121;28;20558;-81
2021/12/10 09:58:19;;;;;;;49.00;25.02;;;7.30;99.90;;;;;;5037303;28;20036;-82
2021/12/10 10:00:50;;;;;;;201.02;116.40;;;7.30;99.90;;;;;;5037697;28;20040;-91
2021/12/10 10:03:20;;;;;;;163.60;85.72;;;7.20;99.90;;;;;;5038087;28;20037;-79
2021/12/10 10:05:46;;;;;;;101.55;54.03;;;7.30;99.90;;;;;;5037538;28;20032;-82
2021/12/10 10:08:17;;;;;;;77.47;41.75;;;7.30;99.90;;;;;;5055595;28;20379;-79
2021/12/10 10:10:48;;;;;;;61.47;31.88;;;7.40;99.90;;;;;;5037303;28;20424;-80
2021/12/10 10:13:16;;;;;;;55.42;27.38;;;7.30;99.90;;;;;;5037781;28;20383;-80
2021/12/10 10:15:45;;;;;;;43.05;24.00;;;7.40;99.90;;;;;;5055302;28;20122;-79
2021/12/10 10:18:11;;;;;;;46.95;23.67;;;7.30;99.90;;;;;;5054765;28;20032;-79
2021/12/10 10:20:45;;;;;;;41.70;21.58;;;7.30;99.90;;;;;;5037097;28;20541;-79
2021/12/10 10:23:12;;;;;;;38.10;21.52;;;7.40;99.90;;;;;;5055367;28;20037;-80
2021/12/10 10:25:41;;;;;;;49.72;25.98;;;7.40;99.90;;;;;;5036767;28;20069;-79
2021/12/10 10:28:10;;;;;;;45.08;24.33;;;7.30;99.90;;;;;;5054846;28;20075;-83
2021/12/10 10:30:59;;;;;;;49.53;26.05;;;7.30;99.90;;;;;;5055102;28;20025;-89
2021/12/10 10:33:27;;;;;;;52.42;27.23;;;7.40;99.90;;;;;;5053883;28;20031;-77
2021/12/10 10:36:01;;;;;;;45.45;24.20;;;7.40;99.90;;;;;;5054268;28;20103;-78
2021/12/10 10:38:27;;;;;;;52.92;27.02;;;7.40;99.90;;;;;;5054777;28;20033;-81
2021/12/10 10:40:58;;;;;;;51.28;25.40;;;7.40;99.90;;;;;;5036925;28;20119;-78
2021/12/10 10:43:27;;;;;;;49.70;26.13;;;7.50;99.90;;;;;;5055071;28;20033;-80
2021/12/10 10:45:54;;;;;;;54.72;28.80;;;7.50;99.90;;;;;;5036782;28;20132;-79
2021/12/10 10:48:20;;;;;;;53.92;26.75;;;7.50;99.90;;;;;;5054372;28;20064;-79
2021/12/10 10:50:46;;;;;;;53.25;27.35;;;7.50;99.90;;;;;;5054173;28;20116;-79
2021/12/10 10:53:14;;;;;;;55.47;27.95;;;7.50;99.90;;;;;;5036351;28;20067;-79
2021/12/10 10:55:49;;;;;;;51.50;26.63;;;7.50;99.90;;;;;;5036339;28;20045;-79
2021/12/10 10:58:17;;;;;;;46.17;26.73;;;7.50;99.90;;;;;;5036544;28;20033;-79
2021/12/10 11:00:56;;;;;;;52.20;28.35;;;7.50;99.90;;;;;;5036371;28;20041;-79
2021/12/10 11:03:25;;;;;;;47.85;27.25;;;7.50;99.90;;;;;;5054422;28;20123;-79
2021/12/10 11:05:57;;;;;;;54.75;27.70;;;7.60;99.90;;;;;;5036087;28;20047;-79
2021/12/10 11:08:44;;;;;;;55.30;27.92;;;7.60;99.90;;;;;;5053974;28;20029;-79
2021/12/10 11:11:24;;;;;;;51.67;27.30;;;7.60;99.90;;;;;;5053600;28;20029;-79
2021/12/10 11:14:00;;;;;;;47.72;26.00;;;7.60;99.90;;;;;;5036180;28;20147;-79
2021/12/10 11:16:30;;;;;;;47.17;25.10;;;7.70;99.90;;;;;;5053822;28;20119;-79
2021/12/10 11:19:03;;;;;;;45.92;25.88;;;7.70;99.90;;;;;;5053743;28;20086;-79
2021/12/10 11:21:45;;;;;;;45.05;25.00;;;7.70;99.90;;;;;;5036448;28;20383;-79
2021/12/10 11:24:25;;;;;;;45.45;24.52;;;7.70;99.90;;;;;;5036138;28;20033;-79
2021/12/10 11:27:14;;;;;;;40.88;23.58;;;7.80;99.90;;;;;;5053882;28;20099;-79
2021/12/10 11:29:51;;;;;;;42.10;22.15;;;7.70;99.90;;;;;;5034813;28;20136;-79
2021/12/10 11:32:35;;;;;;;36.42;21.50;;;7.70;99.90;;;;;;5053687;28;20083;-79
2021/12/10 11:35:16;;;;;;;38.50;22.67;;;7.70;99.90;;;;;;5053515;28;20041;-79
2021/12/10 11:37:44;;;;;;;;;;;7.70;99.90;;;;;;5054174;28;20030;-80
2021/12/10 11:40:27;;;;;;;38.50;22.45;;;7.70;99.90;;;;;;5053128;28;19928;-80
2021/12/10 11:43:01;;;;;;;42.25;23.77;;;7.70;99.90;;;;;;5053589;28;20036;-79
2021/12/10 11:45:33;;;;;;;39.45;23.23;;;7.70;99.90;;;;;;5053765;28;20037;-79
2021/12/10 11:48:09;;;;;;;44.10;23.77;;;7.60;99.90;;;;;;5053522;28;20033;-80
2021/12/10 11:50:43;;;;;;;41.88;24.13;;;7.60;99.90;;;;;;5036132;28;20029;-80
2021/12/10 11:53:15;;;;;;;40.17;22.67;;;7.50;99.90;;;;;;5035938;28;20387;-79
2021/12/10 11:56:07;;;;;;;43.05;23.20;;;7.50;99.90;;;;;;5035752;28;20041;-80
2021/12/10 11:58:32;;;;;;;41.90;23.95;;;7.40;99.90;;;;;;5053309;28;20382;-79
2021/12/10 12:00:58;;;;;;;40.47;23.90;;;7.40;99.90;;;;;;5035495;28;20041;-80
2021/12/10 12:03:34;;;;;;;43.28;25.38;;;7.50;99.90;;;;;;5035591;28;20056;-80
2021/12/10 12:06:01;;;;;;;42.75;24.33;;;7.50;99.90;;;;;;5053287;28;20037;-79
2021/12/10 12:08:28;;;;;;;38.45;22.73;;;7.50;99.90;;;;;;5035293;28;20033;-79
2021/12/10 12:10:58;;;;;;;34.75;22.00;;;7.60;99.90;;;;;;5053243;28;20033;-79
2021/12/10 12:13:42;;;;;;;37.13;21.30;;;7.70;99.90;;;;;;5053509;28;20041;-80
2021/12/10 12:16:14;;;;;;;41.33;25.42;;;7.80;99.90;;;;;;5053184;28;20061;-79
2021/12/10 12:18:51;;;;;;;35.95;21.88;;;7.90;99.90;;;;;;5053453;28;20040;-78
2021/12/10 12:27:18;;;;;;;32.13;19.23;;;8.00;99.90;;;;;;4934038;29;20044;-79
2021/12/10 12:29:55;;;;;;;31.80;17.65;;;8.00;99.90;;;;;;4934443;29;20185;-79
2021/12/10 12:32:31;;;;;;;32.28;18.40;;;8.10;99.90;;;;;;5000455;28;20045;-78
2021/12/10 12:35:13;;;;;;;29.83;17.00;;;8.10;99.90;;;;;;5034995;28;20483;-78
2021/12/10 12:37:38;;;;;;;26.10;16.23;;;8.10;99.90;;;;;;5053151;28;20036;-78
2021/12/10 12:40:05;;;;;;;29.02;16.63;;;8.10;99.90;;;;;;5053144;28;20077;-79
2021/12/10 12:42:31;;;;;;;27.80;16.38;;;8.10;99.90;;;;;;5053946;28;20044;-79
2021/12/10 12:45:08;;;;;;;29.77;17.48;;;8.10;99.90;;;;;;5052918;28;20563;-80
2021/12/10 12:47:41;;;;;;;29.15;16.65;;;8.10;99.90;;;;;;5052815;28;20029;-79
2021/12/10 12:50:15;;;;;;;28.92;16.80;;;8.10;99.90;;;;;;5053044;28;20055;-79
2021/12/10 12:52:48;;;;;;;31.58;17.92;;;8.10;99.90;;;;;;5052788;28;20037;-80
2021/12/10 12:55:36;;;;;;;29.48;18.65;;;8.10;99.90;;;;;;5053247;28;20033;-79
2021/12/10 12:58:11;;;;;;;32.13;18.98;;;8.10;99.90;;;;;;5056933;28;20416;-79
2021/12/10 13:01:04;;;;;;;33.42;19.90;;;8.10;99.90;;;;;;5056596;28;20069;-79
2021/12/10 13:03:30;;;;;;;32.42;20.38;;;8.10;99.90;;;;;;5038939;28;20335;-79
2021/12/10 13:06:04;;;;;;;32.03;19.35;;;8.10;99.90;;;;;;5056227;28;20116;-79
2021/12/10 13:08:34;;;;;;;32.25;19.67;;;8.10;99.90;;;;;;5038769;28;20033;-79